createdAt,value
2022-10-24T03:19:52.766Z,32.73
2022-10-24T03:23:03.473Z,24.23
2022-10-24T03:26:14.318Z,24.17
2022-10-24T03:29:24.914Z,20.60
2022-10-24T03:32:35.582Z,17.30
2022-10-24T03:35:47.406Z,20.93
2022-10-24T03:38:57.982Z,16.77
2022-10-24T03:42:08.692Z,23.20
2022-10-24T03:45:19.469Z,20.37
2022-10-24T03:48:30.095Z,23.60
2022-10-24T03:51:42.234Z,29.23
2022-10-24T03:54:53.020Z,18.70
2022-10-24T03:58:03.509Z,25.20
2022-10-24T04:01:18.265Z,22.67
2022-10-24T04:04:28.915Z,16.73
2022-10-24T04:07:40.642Z,35.30
2022-10-24T04:10:51.161Z,28.70
2022-10-24T04:17:13.535Z,26.70
2022-10-24T04:20:24.517Z,27.53
2022-10-24T04:23:41.120Z,25.33
2022-10-24T04:26:51.542Z,29.77
2022-10-24T04:30:02.072Z,21.30
2022-10-24T04:33:12.690Z,26.67
2022-10-24T04:36:23.331Z,20.23
2022-10-24T04:39:35.103Z,18.30
2022-10-24T04:42:46.069Z,20.83
2022-10-24T04:45:56.919Z,22.20
2022-10-24T04:49:08.124Z,22.57
2022-10-24T04:52:18.583Z,29.00
2022-10-24T04:55:30.958Z,26.53
2022-10-24T04:58:41.370Z,23.07
2022-10-24T06:02:22.231Z,20.57
2022-10-24T06:05:32.821Z,23.43
2022-10-24T06:08:43.250Z,27.13
2022-10-24T06:11:53.551Z,21.43
2022-10-24T06:15:05.876Z,20.17
2022-10-24T06:18:19.863Z,20.43
2022-10-24T06:21:30.019Z,19.10
2022-10-24T06:24:39.764Z,20.00
2022-10-24T06:27:49.529Z,17.40
2022-10-24T06:31:03.170Z,13.53
2022-10-24T06:34:14.175Z,16.73
2022-10-24T06:37:24.029Z,18.50
2022-10-24T06:44:11.817Z,23.20
2022-10-24T06:47:22.576Z,17.73
2022-10-24T06:50:34.329Z,18.20
2022-10-24T06:53:45.417Z,18.07
2022-10-24T06:56:55.925Z,13.47
2022-10-24T07:00:07.136Z,21.63
2022-10-24T07:03:17.853Z,13.47
2022-10-24T07:06:31.229Z,14.50
2022-10-24T07:09:41.954Z,19.17
2022-10-24T07:12:52.711Z,15.53
2022-10-24T07:16:03.541Z,14.27
2022-10-24T07:19:14.218Z,18.50
2022-10-24T07:22:27.433Z,17.57
2022-10-24T07:25:40.471Z,15.90
2022-10-24T07:28:53.809Z,16.70
2022-10-24T07:32:04.993Z,14.97
2022-10-24T07:35:15.783Z,12.23
2022-10-24T07:38:28.539Z,18.10
2022-10-24T07:41:41.803Z,18.87
2022-10-24T07:44:53.248Z,13.93
2022-10-24T07:48:05.817Z,15.47
2022-10-24T07:51:17.367Z,17.67
2022-10-24T07:54:32.974Z,15.17
2022-10-24T07:57:47.812Z,19.93
2022-10-24T08:01:05.605Z,14.80
2022-10-24T08:04:16.693Z,21.83
2022-10-24T08:07:27.309Z,16.10
2022-10-24T08:10:39.896Z,18.73
2022-10-24T08:13:50.953Z,12.57
2022-10-24T08:17:01.573Z,15.53
2022-10-24T08:20:13.099Z,10.60
2022-10-24T08:23:25.527Z,13.30
2022-10-24T08:26:40.595Z,13.40
2022-10-24T08:29:51.138Z,16.03
2022-10-24T08:33:02.019Z,9.53
2022-10-24T08:36:20.738Z,12.23
2022-10-24T08:39:31.234Z,10.30
2022-10-24T08:42:43.403Z,7.97
2022-10-24T08:46:05.385Z,9.57
2022-10-24T08:49:24.884Z,10.87
2022-10-24T08:52:41.724Z,11.33
2022-10-24T08:55:54.671Z,8.33
2022-10-24T08:59:07.775Z,8.17
2022-10-24T09:02:22.648Z,9.63
2022-10-24T09:05:41.718Z,8.60
2022-10-24T09:08:54.631Z,4.87
2022-10-24T09:12:10.154Z,11.20
2022-10-24T09:15:27.262Z,6.00
2022-10-24T09:18:41.829Z,9.70
2022-10-24T09:21:53.868Z,10.37
2022-10-24T09:25:09.054Z,9.47
2022-10-24T09:28:20.427Z,5.47
2022-10-24T09:31:32.383Z,8.63
2022-10-24T09:34:43.292Z,6.57
2022-10-24T09:37:56.133Z,8.93
2022-10-24T09:41:09.208Z,7.43
2022-10-24T09:44:33.140Z,10.77
2022-10-24T09:47:45.185Z,8.17
2022-10-24T09:50:57.052Z,6.23
2022-10-24T09:54:26.422Z,5.93
2022-10-24T09:57:40.925Z,8.10
2022-10-24T10:00:59.831Z,6.80
2022-10-24T10:04:17.896Z,7.30
2022-10-24T10:07:30.773Z,4.40
2022-10-24T10:10:42.210Z,4.83
2022-10-24T10:22:52.799Z,5.27
2022-10-24T10:26:13.128Z,4.13
2022-10-24T10:29:25.705Z,5.50
2022-10-24T10:32:44.009Z,6.20
2022-10-24T10:36:01.531Z,4.80
2022-10-24T10:39:25.795Z,6.33
2022-10-24T10:42:43.954Z,5.97
2022-10-24T10:46:07.855Z,5.13
2022-10-24T10:49:25.695Z,5.50
2022-10-24T10:52:48.864Z,5.70
2022-10-24T10:56:09.877Z,5.73
2022-10-24T10:59:36.022Z,5.90
2022-10-24T11:03:03.878Z,5.73
2022-10-24T11:06:30.980Z,4.83
2022-10-24T11:09:47.061Z,4.03
2022-10-24T11:13:02.302Z,5.60
2022-10-24T11:16:19.131Z,4.37
2022-10-24T11:19:36.588Z,4.87
2022-10-24T11:22:52.336Z,5.67
2022-10-24T11:26:07.301Z,4.13
2022-10-24T11:29:25.871Z,5.43
2022-10-24T11:32:42.418Z,3.40
2022-10-24T11:36:03.121Z,6.33
2022-10-24T11:39:20.190Z,4.83
2022-10-24T11:42:39.081Z,4.60
2022-10-24T11:45:57.754Z,7.07
2022-10-24T11:49:18.068Z,4.70
2022-10-24T11:52:33.415Z,3.70
2022-10-24T11:55:49.692Z,4.50
2022-10-24T11:59:03.399Z,4.77
2022-10-24T12:02:46.108Z,5.67
2022-10-24T12:06:11.630Z,4.53
2022-10-24T12:09:37.479Z,5.77
2022-10-24T12:13:07.304Z,3.80
2022-10-24T12:16:31.597Z,5.67
2022-10-24T12:19:46.150Z,4.63
2022-10-24T12:22:58.937Z,4.23
2022-10-24T12:26:20.457Z,5.47
2022-10-24T12:29:33.873Z,4.33
2022-10-24T12:32:48.444Z,6.27
2022-10-24T12:36:01.179Z,4.50
2022-10-24T12:39:12.307Z,3.07
2022-10-24T12:43:06.506Z,2.60
2022-10-24T12:46:40.970Z,3.27
2022-10-24T12:49:52.154Z,2.87
2022-10-24T12:53:07.481Z,4.33
2022-10-24T12:56:20.937Z,3.20
2022-10-24T12:59:34.279Z,3.63
2022-10-24T13:03:00.991Z,3.33
2022-10-24T13:06:24.439Z,3.53
2022-10-24T13:09:47.132Z,2.80
2022-10-24T13:13:14.903Z,3.50
2022-10-24T13:16:33.696Z,3.03
2022-10-24T13:19:44.915Z,3.27
2022-10-24T13:23:03.391Z,2.27
2022-10-24T13:26:37.558Z,3.67
2022-10-24T13:30:01.665Z,2.93
2022-10-24T13:33:33.964Z,4.80
2022-10-24T13:36:46.715Z,3.07
2022-10-24T13:40:02.758Z,17.83
2022-10-24T13:43:20.744Z,38.10
2022-10-24T13:46:42.058Z,10.30
2022-10-24T13:49:57.313Z,5.27
2022-10-24T13:53:21.034Z,3.97
2022-10-24T13:56:41.230Z,2.63
2022-10-24T13:59:58.325Z,2.90
2022-10-24T14:03:15.606Z,5.23
2022-10-24T14:06:28.091Z,5.67
2022-10-24T14:09:42.707Z,5.60
2022-10-24T14:12:57.292Z,4.83
2022-10-24T14:16:09.731Z,5.30
2022-10-24T14:19:28.415Z,6.13
2022-10-24T14:22:43.097Z,3.30
2022-10-24T14:25:57.335Z,4.77
2022-10-24T14:29:22.433Z,4.33
2022-10-24T14:32:34.799Z,5.07
2022-10-24T14:35:46.192Z,4.07
2022-10-24T14:38:59.381Z,3.63
2022-10-24T14:42:16.188Z,6.97
2022-10-24T14:45:28.732Z,6.80
2022-10-24T14:48:43.216Z,4.20
2022-10-24T14:51:56.070Z,3.67
2022-10-24T14:55:17.884Z,3.37
2022-10-24T14:58:31.114Z,6.20
2022-10-24T15:01:41.935Z,5.97
2022-10-24T15:05:13.653Z,5.37
2022-10-24T15:08:35.321Z,3.60
2022-10-24T15:11:47.945Z,4.33
2022-10-24T15:15:21.558Z,8.17
2022-10-24T15:18:36.934Z,6.53
2022-10-24T15:21:50.325Z,8.23
2022-10-24T15:25:03.766Z,5.10
2022-10-24T15:28:37.845Z,13.37
2022-10-24T15:31:50.691Z,8.30
2022-10-24T15:35:01.561Z,5.07
2022-10-24T15:38:17.171Z,9.93
2022-10-24T15:41:28.596Z,7.57
2022-10-24T15:44:40.887Z,5.50
2022-10-24T15:47:53.102Z,6.27
2022-10-24T15:51:05.223Z,7.90
2022-10-24T15:54:19.424Z,5.60
2022-10-24T15:57:30.588Z,9.53
2022-10-24T16:00:42.476Z,7.60
2022-10-24T16:03:53.640Z,8.03
2022-10-24T16:07:05.305Z,4.63
2022-10-24T16:10:19.952Z,4.80
2022-10-24T16:13:32.448Z,6.73
2022-10-24T16:16:46.411Z,7.07
2022-10-24T16:19:59.392Z,6.43
2022-10-24T16:23:12.715Z,7.20
2022-10-24T16:26:27.594Z,5.47
2022-10-24T16:29:39.986Z,6.50
2022-10-24T16:32:54.427Z,5.87
2022-10-24T16:36:07.381Z,7.77
2022-10-24T16:39:20.666Z,13.40
2022-10-24T16:42:35.823Z,12.20
2022-10-24T16:45:58.346Z,10.70
2022-10-24T16:49:12.296Z,13.10
2022-10-24T16:52:26.319Z,11.23
2022-10-24T16:55:40.547Z,12.43
2022-10-24T16:58:57.471Z,11.30
2022-10-24T17:02:13.932Z,15.73
2022-10-24T17:05:31.586Z,12.90
2022-10-24T17:08:47.105Z,8.73
2022-10-24T17:12:03.052Z,8.63
2022-10-24T17:15:22.432Z,9.37
2022-10-24T17:18:40.193Z,11.23
2022-10-24T17:21:56.477Z,10.47
2022-10-24T17:25:21.397Z,8.80
2022-10-24T17:28:37.359Z,11.67
2022-10-24T17:31:54.916Z,9.90
2022-10-24T17:35:11.313Z,10.67
2022-10-24T17:38:40.420Z,10.67
2022-10-24T17:41:57.195Z,10.93
2022-10-24T17:45:18.482Z,14.47
2022-10-24T17:48:38.100Z,13.17
2022-10-24T17:51:54.204Z,15.13
2022-10-24T17:55:22.244Z,13.93
2022-10-24T17:58:45.457Z,16.30
2022-10-24T18:02:02.592Z,18.70
2022-10-24T18:05:22.903Z,15.00
2022-10-24T18:08:40.906Z,17.30
2022-10-24T18:11:59.366Z,12.27
2022-10-24T18:15:17.158Z,12.03
2022-10-24T18:18:34.381Z,8.63
2022-10-24T18:21:52.996Z,8.37
2022-10-24T18:25:09.167Z,18.83
2022-10-24T18:28:29.250Z,13.03
2022-10-24T18:31:45.441Z,10.10
2022-10-24T18:35:01.332Z,17.13
2022-10-24T18:38:21.675Z,13.67
2022-10-24T18:41:47.534Z,13.93
2022-10-24T18:45:03.559Z,13.27
2022-10-24T18:48:20.145Z,16.80
2022-10-24T18:51:39.973Z,9.40
2022-10-24T18:55:05.267Z,13.20
2022-10-24T18:58:24.642Z,13.13
2022-10-24T19:01:50.629Z,20.50
2022-10-24T19:05:21.091Z,39.63
2022-10-24T19:08:38.132Z,31.40
2022-10-24T19:11:56.564Z,21.90
2022-10-24T19:15:12.953Z,36.43
2022-10-24T19:18:31.876Z,38.23
2022-10-24T19:21:49.839Z,21.50
2022-10-24T19:25:07.399Z,13.67
2022-10-24T19:28:27.903Z,11.50
2022-10-24T19:31:48.889Z,16.27
2022-10-24T19:35:06.944Z,17.40
2022-10-24T19:38:23.186Z,13.53
2022-10-24T19:41:39.357Z,16.43
2022-10-24T19:44:59.061Z,19.67
2022-10-24T19:48:15.907Z,19.33
2022-10-24T19:51:32.566Z,16.93
2022-10-24T19:54:49.103Z,15.83
2022-10-24T19:58:04.665Z,16.60
2022-10-24T20:01:23.213Z,14.43
2022-10-24T20:04:42.641Z,21.70
2022-10-24T20:07:59.717Z,13.97
2022-10-24T20:11:16.637Z,11.13
2022-10-24T20:14:32.162Z,15.97
